createdAt,value
2018-01-20T00:02:04.000Z,35.198
2018-01-20T00:12:05.000Z,35.296
2018-01-20T00:22:04.000Z,35.356
2018-01-20T00:32:04.000Z,35.395
2018-01-20T00:52:04.000Z,34.827
2018-01-20T01:02:04.000Z,34.779
2018-01-20T01:12:04.000Z,34.679
2018-01-20T01:22:04.000Z,34.774
2018-01-20T01:32:04.000Z,34.978
2018-01-20T01:42:04.000Z,35.169
2018-01-20T01:52:04.000Z,35.027
2018-01-20T02:02:04.000Z,35.08
2018-01-20T02:12:04.000Z,35.078
2018-01-20T02:22:04.000Z,34.794
2018-01-20T02:32:04.000Z,34.996
2018-01-20T02:42:04.000Z,34.899
2018-01-20T02:52:04.000Z,35.135
2018-01-20T03:02:04.000Z,35.166
2018-01-20T03:12:04.000Z,35.143
2018-01-20T03:22:04.000Z,35.292
2018-01-20T03:32:04.000Z,35.076
2018-01-20T03:42:05.000Z,35.322
2018-01-20T03:52:05.000Z,35.255
2018-01-20T04:02:05.000Z,35.107
2018-01-20T04:12:05.000Z,35.002
2018-01-20T04:22:05.000Z,35.046
2018-01-20T04:32:05.000Z,35.207
2018-01-20T04:42:05.000Z,35.292
2018-01-20T04:52:05.000Z,35.269
2018-01-20T05:02:05.000Z,35.205
2018-01-20T05:12:05.000Z,35.138
2018-01-20T05:22:05.000Z,35.095
2018-01-20T05:32:05.000Z,34.956
2018-01-20T05:42:06.000Z,34.933
2018-01-20T05:52:05.000Z,34.965
2018-01-20T06:02:05.000Z,34.803
2018-01-20T06:12:05.000Z,34.621
2018-01-20T06:22:05.000Z,34.556
2018-01-20T06:32:05.000Z,34.501
2018-01-20T06:42:05.000Z,34.362
2018-01-20T06:52:05.000Z,34.372
2018-01-20T07:02:07.000Z,34.091
2018-01-20T07:12:05.000Z,34.103
2018-01-20T07:22:05.000Z,33.942
2018-01-20T07:32:05.000Z,33.952
2018-01-20T07:42:05.000Z,33.791
2018-01-20T07:52:05.000Z,33.68
2018-01-20T08:02:05.000Z,33.709
2018-01-20T08:12:05.000Z,33.764
2018-01-20T08:22:05.000Z,33.743
2018-01-20T08:32:05.000Z,33.732
2018-01-20T08:42:05.000Z,33.571
2018-01-20T08:52:05.000Z,33.369
2018-01-20T09:02:05.000Z,33.415
2018-01-20T09:12:05.000Z,33.393
2018-01-20T09:22:05.000Z,33.018
2018-01-20T09:32:05.000Z,32.645
2018-01-20T09:42:05.000Z,32.418
2018-01-20T09:52:05.000Z,32.184
2018-01-20T10:02:05.000Z,32.254
2018-01-20T10:12:05.000Z,32.123
2018-01-20T10:22:05.000Z,32.405
2018-01-20T10:32:05.000Z,32.221
2018-01-20T10:42:05.000Z,32.202
2018-01-20T10:52:05.000Z,31.774
2018-01-20T11:02:05.000Z,31.795
2018-01-20T11:12:05.000Z,31.622
2018-01-20T11:22:05.000Z,31.731
2018-01-20T11:32:05.000Z,31.963
2018-01-20T11:42:05.000Z,31.955
2018-01-20T11:52:05.000Z,32.119
2018-01-20T12:02:06.000Z,32.185
2018-01-20T12:12:06.000Z,32.447
2018-01-20T12:22:06.000Z,32.769
2018-01-20T12:32:06.000Z,32.648
2018-01-20T12:42:06.000Z,34.298
2018-01-20T12:52:06.000Z,34.266
2018-01-20T13:02:06.000Z,34.497
2018-01-20T13:12:06.000Z,34.699
2018-01-20T13:22:06.000Z,34.644
2018-01-20T13:32:06.000Z,34.467
2018-01-20T13:42:06.000Z,34.314
2018-01-20T14:02:06.000Z,34.105
2018-01-20T14:12:06.000Z,33.986
2018-01-20T14:22:06.000Z,33.898
2018-01-20T14:32:06.000Z,33.81
2018-01-20T14:42:08.000Z,33.732
2018-01-20T14:52:06.000Z,33.623
2018-01-20T15:02:06.000Z,33.579
2018-01-20T15:12:06.000Z,33.469
2018-01-20T15:22:06.000Z,33.414
2018-01-20T15:32:06.000Z,33.369
2018-01-20T15:42:06.000Z,33.347
2018-01-20T15:52:06.000Z,33.216
2018-01-20T16:02:06.000Z,33.248
2018-01-20T16:12:06.000Z,33.148
2018-01-20T16:22:06.000Z,33.19
2018-01-20T16:32:06.000Z,33.851
2018-01-20T16:42:06.000Z,33.67
2018-01-20T16:52:06.000Z,33.411
2018-01-20T17:02:06.000Z,33.54
2018-01-20T17:12:06.000Z,34.162
2018-01-20T17:22:06.000Z,34.194
2018-01-20T17:32:06.000Z,34.173
2018-01-20T17:42:06.000Z,34.283
2018-01-20T17:52:06.000Z,34.252
2018-01-20T18:02:06.000Z,33.996
2018-01-20T18:12:06.000Z,33.801
2018-01-20T18:22:06.000Z,33.662
2018-01-20T18:32:07.000Z,33.901
2018-01-20T18:42:06.000Z,33.944
2018-01-20T18:52:06.000Z,33.988
2018-01-20T19:02:06.000Z,34.109
2018-01-20T19:12:06.000Z,34.012
2018-01-20T19:22:06.000Z,34.012
2018-01-20T19:32:06.000Z,34.077
2018-01-20T19:42:06.000Z,34.121
2018-01-20T19:52:06.000Z,34.068
2018-01-20T20:02:06.000Z,34.089
2018-01-20T20:12:06.000Z,34.113
2018-01-20T20:22:07.000Z,34.166
2018-01-20T20:32:08.000Z,34.049
2018-01-20T20:42:07.000Z,34.212
2018-01-20T20:52:07.000Z,34.094
2018-01-20T21:02:07.000Z,34.051
2018-01-20T21:12:07.000Z,34.17
2018-01-20T21:22:07.000Z,34.052
2018-01-20T21:32:08.000Z,34.15
2018-01-20T21:42:07.000Z,34.151
2018-01-20T21:52:07.000Z,34.108
2018-01-20T22:02:07.000Z,34.086
2018-01-20T22:12:07.000Z,34.32
2018-01-20T22:22:07.000Z,34.173
2018-01-20T22:32:07.000Z,34.088
2018-01-20T22:42:07.000Z,34.221
2018-01-20T22:52:07.000Z,34.297
2018-01-20T23:02:08.000Z,34.036
2018-01-20T23:12:07.000Z,34.037
2018-01-20T23:22:09.000Z,33.598
2018-01-20T23:32:07.000Z,33.998
2018-01-20T23:42:07.000Z,33.791
2018-01-20T23:52:07.000Z,34.19
